Time;durP1;ratioP1;P1;durP2;ratioP2;P2;SDS_P1;SDS_P2;PMS_P1;PMS_P2;Temp;Humidity;BMP_temperature;BMP_pressure;BME280_temperature;BME280_humidity;BME280_pressure;Samples;Min_cycle;Max_cycle;Signal;HPM_P1;HPM_P2
2022/08/24 00:00:36;;;;;;;25.38;15.15;;;;;;;;;;5000268;28;20014;-62
2022/08/24 00:03:01;;;;;;;23.55;15.18;;;;;;;;;;5000558;28;20358;-62
2022/08/24 00:05:26;;;;;;;27.33;14.38;;;;;;;;;;5000520;28;20469;-62
2022/08/24 00:07:52;;;;;;;22.75;14.85;;;;;;;;;;4999538;28;20050;-62
2022/08/24 00:10:19;;;;;;;25.10;15.45;;;;;;;;;;5000662;28;20353;-62
2022/08/24 00:12:45;;;;;;;28.38;15.65;;;;;;;;;;4996389;28;20030;-62
2022/08/24 00:15:12;;;;;;;29.10;14.82;;;;;;;;;;4997750;28;20441;-61
2022/08/24 00:17:38;;;;;;;23.10;14.30;;;;;;;;;;4997030;28;20041;-62
2022/08/24 00:20:04;;;;;;;23.08;14.15;;;;;;;;;;4997548;28;20023;-62
2022/08/24 00:22:29;;;;;;;24.30;14.23;;;;;;;;;;5012763;28;20508;-61
2022/08/24 00:24:55;;;;;;;19.85;13.23;;;;;;;;;;4996803;28;20050;-61
2022/08/24 00:27:21;;;;;;;23.42;14.52;;;;;;;;;;4997091;28;20034;-62
2022/08/24 00:29:46;;;;;;;26.15;15.48;;;;;;;;;;4997557;28;20076;-62
2022/08/24 00:32:13;;;;;;;26.17;14.38;;;;;;;;;;4997137;28;20038;-62
2022/08/24 00:34:38;;;;;;;22.20;13.80;;;;;;;;;;4996051;28;20019;-62
2022/08/24 00:37:03;;;;;;;28.02;14.55;;;;;;;;;;5014613;28;20053;-62
2022/08/24 00:39:29;;;;;;;28.20;14.55;;;;;;;;;;5016425;28;20038;-61
2022/08/24 00:41:54;;;;;;;24.95;14.95;;;;;;;;;;5016588;28;20053;-62
2022/08/24 00:44:20;;;;;;;24.27;13.75;;;;;;;;;;5016530;28;20018;-62
2022/08/24 00:46:58;;;;;;;24.02;14.40;;;;;;;;;;5016447;28;20460;-62
2022/08/24 00:49:32;;;;;;;28.05;14.95;;;;;;;;;;5016631;28;20022;-61
2022/08/24 00:52:13;;;;;;;23.55;14.40;;;;;;;;;;5016497;28;20136;-62
2022/08/24 00:54:44;;;;;;;25.20;13.73;;;;;;;;;;5016434;28;20018;-62
2022/08/24 00:57:10;;;;;;;23.23;14.15;;;;;;;;;;5016220;28;20025;-61
2022/08/24 00:59:41;;;;;;;23.35;13.85;;;;;;;;;;4998889;28;20021;-61
2022/08/24 01:02:10;;;;;;;22.35;13.50;;;;;;;;;;4998653;28;20022;-62
2022/08/24 01:04:39;;;;;;;24.77;15.37;;;;;;;;;;5016012;28;20041;-61
2022/08/24 01:07:04;;;;;;;22.15;13.85;;;;;;;;;;5015905;28;20037;-61
2022/08/24 01:09:30;;;;;;;22.88;13.35;;;;;;;;;;5016214;28;20045;-63
2022/08/24 01:11:55;;;;;;;21.00;12.75;;;;;;;;;;5016137;28;20084;-62
2022/08/24 01:14:21;;;;;;;24.40;13.77;;;;;;;;;;4998458;28;20029;-62
2022/08/24 01:19:39;;;;;;;21.25;13.13;;;;;;;;;;4998420;28;20068;-62
2022/08/24 01:22:16;;;;;;;23.38;14.35;;;;;;;;;;4997882;28;20038;-62
2022/08/24 01:24:42;;;;;;;22.08;13.65;;;;;;;;;;4997593;28;20033;-62
2022/08/24 01:27:08;;;;;;;26.05;14.73;;;;;;;;;;5015779;28;20111;-62
2022/08/24 01:29:34;;;;;;;21.40;13.25;;;;;;;;;;5015521;28;20034;-62
2022/08/24 01:31:59;;;;;;;23.88;14.55;;;;;;;;;;5015710;28;20088;-62
2022/08/24 01:34:25;;;;;;;23.13;14.07;;;;;;;;;;5015605;28;20033;-62
2022/08/24 01:36:54;;;;;;;22.00;13.63;;;;;;;;;;4997659;28;20056;-62
2022/08/24 01:39:34;;;;;;;19.80;13.65;;;;;;;;;;4997755;28;20037;-62
2022/08/24 01:42:00;;;;;;;23.98;14.45;;;;;;;;;;5015622;28;20029;-62
2022/08/24 01:44:27;;;;;;;24.85;15.18;;;;;;;;;;4997810;28;20014;-62
2022/08/24 01:46:54;;;;;;;22.88;13.88;;;;;;;;;;4997782;28;20492;-62
2022/08/24 01:49:21;;;;;;;20.17;13.60;;;;;;;;;;4997691;28;20156;-62
2022/08/24 01:51:47;;;;;;;20.45;13.50;;;;;;;;;;4997797;28;20504;-62
2022/08/24 01:54:14;;;;;;;20.35;13.15;;;;;;;;;;4997765;28;20044;-62
2022/08/24 01:56:40;;;;;;;20.60;13.18;;;;;;;;;;4997404;28;20038;-62
2022/08/24 01:59:06;;;;;;;22.88;13.75;;;;;;;;;;4997405;28;20026;-62
2022/08/24 02:01:36;;;;;;;21.08;13.43;;;;;;;;;;4997480;28;20076;-62
2022/08/24 02:04:02;;;;;;;19.30;12.23;;;;;;;;;;4997186;28;20053;-62
2022/08/24 02:06:27;;;;;;;18.38;12.43;;;;;;;;;;4997384;28;20026;-62
2022/08/24 02:08:52;;;;;;;19.40;12.10;;;;;;;;;;4997408;28;20033;-62
2022/08/24 02:11:18;;;;;;;18.40;12.52;;;;;;;;;;4997361;28;20088;-62
2022/08/24 02:13:43;;;;;;;18.10;11.77;;;;;;;;;;4997152;28;20028;-62
2022/08/24 02:16:09;;;;;;;18.08;12.35;;;;;;;;;;4997267;28;20033;-62
2022/08/24 02:18:35;;;;;;;18.90;11.95;;;;;;;;;;4996606;28;20523;-61
2022/08/24 02:21:01;;;;;;;15.93;11.48;;;;;;;;;;4996736;28;20037;-61
2022/08/24 02:23:27;;;;;;;16.85;12.10;;;;;;;;;;5014435;28;20022;-61
2022/08/24 02:25:53;;;;;;;17.65;11.88;;;;;;;;;;4997200;28;20049;-61
2022/08/24 02:28:19;;;;;;;18.52;12.98;;;;;;;;;;4997181;28;20033;-62
2022/08/24 02:30:44;;;;;;;18.75;11.75;;;;;;;;;;5014468;28;20033;-62
2022/08/24 02:33:10;;;;;;;16.60;11.90;;;;;;;;;;4997136;28;20416;-61
2022/08/24 02:35:36;;;;;;;19.33;12.20;;;;;;;;;;4996237;28;20096;-62
2022/08/24 02:38:02;;;;;;;15.82;11.35;;;;;;;;;;4996597;28;20069;-61
2022/08/24 02:40:31;;;;;;;16.33;10.98;;;;;;;;;;4996824;28;20029;-61
2022/08/24 02:42:57;;;;;;;20.20;12.13;;;;;;;;;;4997177;28;20022;-62
2022/08/24 02:45:22;;;;;;;20.33;11.82;;;;;;;;;;4996870;28;20076;-61
2022/08/24 02:47:48;;;;;;;15.85;11.93;;;;;;;;;;4980687;28;20022;-62
2022/08/24 02:50:14;;;;;;;21.35;12.60;;;;;;;;;;4996620;28;20427;-61
2022/08/24 02:52:40;;;;;;;16.70;11.20;;;;;;;;;;4996356;28;20025;-61
2022/08/24 02:55:07;;;;;;;15.75;11.50;;;;;;;;;;4996607;28;20037;-61
2022/08/24 02:57:32;;;;;;;18.25;11.63;;;;;;;;;;4996839;28;20061;-61
2022/08/24 02:59:58;;;;;;;14.50;11.52;;;;;;;;;;5014337;28;20054;-62
2022/08/24 03:02:23;;;;;;;16.73;11.35;;;;;;;;;;4996959;28;20018;-62
2022/08/24 03:04:49;;;;;;;17.42;11.75;;;;;;;;;;4996658;28;20160;-62
2022/08/24 03:07:14;;;;;;;20.05;11.70;;;;;;;;;;4996361;28;20019;-62
2022/08/24 03:09:40;;;;;;;18.08;12.13;;;;;;;;;;4996680;28;20485;-68
2022/08/24 03:12:05;;;;;;;18.13;11.68;;;;;;;;;;4996768;28;20361;-67
2022/08/24 03:14:34;;;;;;;18.25;11.65;;;;;;;;;;4996738;28;20460;-67
2022/08/24 03:16:59;;;;;;;18.42;11.65;;;;;;;;;;5013946;28;20021;-67
2022/08/24 03:19:25;;;;;;;16.20;11.52;;;;;;;;;;4996287;28;20022;-66
2022/08/24 03:21:52;;;;;;;18.08;11.90;;;;;;;;;;4996445;28;20018;-66
2022/08/24 03:24:17;;;;;;;16.42;11.52;;;;;;;;;;5014373;28;20523;-66
2022/08/24 03:26:44;;;;;;;20.15;11.95;;;;;;;;;;4996486;28;20022;-66
2022/08/24 03:29:11;;;;;;;18.58;11.05;;;;;;;;;;5013778;28;20084;-66
2022/08/24 03:31:36;;;;;;;18.75;11.98;;;;;;;;;;5014156;28;20018;-66
2022/08/24 03:34:01;;;;;;;15.68;11.65;;;;;;;;;;4996477;28;20388;-66
2022/08/24 03:36:27;;;;;;;17.73;10.95;;;;;;;;;;4996293;28;20082;-66
2022/08/24 03:38:53;;;;;;;15.88;11.65;;;;;;;;;;4996233;28;20025;-66
2022/08/24 03:41:18;;;;;;;16.85;11.43;;;;;;;;;;4996287;28;20033;-67
2022/08/24 03:43:50;;;;;;;17.63;12.05;;;;;;;;;;4996248;28;20045;-67
2022/08/24 03:46:19;;;;;;;16.85;11.63;;;;;;;;;;5014608;28;20030;-67
2022/08/24 03:48:45;;;;;;;18.10;11.52;;;;;;;;;;4999581;28;20026;-67
2022/08/24 03:51:11;;;;;;;17.30;11.95;;;;;;;;;;5017716;28;20026;-66
2022/08/24 03:53:38;;;;;;;19.20;12.13;;;;;;;;;;5000279;28;20132;-67
2022/08/24 03:56:03;;;;;;;16.52;11.48;;;;;;;;;;4999595;28;20611;-62
2022/08/24 03:58:29;;;;;;;16.15;11.02;;;;;;;;;;4999535;28;20113;-62
2022/08/24 04:00:54;;;;;;;16.25;11.35;;;;;;;;;;4999458;28;20025;-62
2022/08/24 04:03:20;;;;;;;17.77;11.68;;;;;;;;;;4999457;28;20026;-67
2022/08/24 04:05:46;;;;;;;14.32;11.48;;;;;;;;;;5000272;28;20033;-67
2022/08/24 04:08:12;;;;;;;13.88;11.48;;;;;;;;;;4999884;28;20029;-67
2022/08/24 04:10:42;;;;;;;17.70;10.90;;;;;;;;;;4999384;28;20080;-67
2022/08/24 04:13:08;;;;;;;15.60;11.50;;;;;;;;;;4999057;28;20062;-68
2022/08/24 04:15:37;;;;;;;17.75;12.13;;;;;;;;;;4999442;28;20049;-68
2022/08/24 04:18:03;;;;;;;17.63;11.68;;;;;;;;;;4998895;28;20072;-68
2022/08/24 04:20:28;;;;;;;15.63;11.68;;;;;;;;;;4999116;28;20022;-67
2022/08/24 04:22:55;;;;;;;13.65;10.68;;;;;;;;;;4999021;28;20026;-67
2022/08/24 04:25:20;;;;;;;13.85;10.77;;;;;;;;;;4999242;28;20022;-68
2022/08/24 04:27:48;;;;;;;14.90;10.90;;;;;;;;;;4999019;28;20088;-68
2022/08/24 04:30:13;;;;;;;14.13;10.55;;;;;;;;;;4998551;28;20022;-67
2022/08/24 04:33:00;;;;;;;16.27;10.27;;;;;;;;;;4998472;28;20026;-68
2022/08/24 04:35:26;;;;;;;14.90;11.13;;;;;;;;;;4997733;28;20484;-67
2022/08/24 04:37:51;;;;;;;15.55;11.27;;;;;;;;;;4998049;28;20030;-67
2022/08/24 04:40:17;;;;;;;16.98;11.43;;;;;;;;;;4998212;28;20037;-67
2022/08/24 04:42:45;;;;;;;16.35;11.55;;;;;;;;;;5015033;28;20017;-67
2022/08/24 04:45:11;;;;;;;14.65;11.23;;;;;;;;;;5014564;28;20065;-67
2022/08/24 04:47:36;;;;;;;17.48;11.02;;;;;;;;;;4996980;28;20029;-67
2022/08/24 04:50:02;;;;;;;16.05;11.20;;;;;;;;;;4996765;28;20030;-68
2022/08/24 04:52:28;;;;;;;14.85;10.95;;;;;;;;;;4996610;28;20032;-67
2022/08/24 04:54:53;;;;;;;18.95;11.50;;;;;;;;;;5014177;28;20461;-67
2022/08/24 04:57:22;;;;;;;17.55;11.07;;;;;;;;;;4996832;28;20392;-67
2022/08/24 04:59:48;;;;;;;16.25;11.27;;;;;;;;;;4997963;28;20476;-67
2022/08/24 05:02:13;;;;;;;15.43;9.90;;;;;;;;;;4998035;28;20018;-67
2022/08/24 05:04:38;;;;;;;13.55;10.18;;;;;;;;;;4997316;28;20041;-67
2022/08/24 05:07:05;;;;;;;14.32;10.07;;;;;;;;;;4997678;28;20021;-67
2022/08/24 05:09:31;;;;;;;18.27;10.05;;;;;;;;;;4997803;28;20052;-67
2022/08/24 05:11:58;;;;;;;14.77;10.45;;;;;;;;;;4997605;28;20017;-67
2022/08/24 05:14:26;;;;;;;13.35;9.52;;;;;;;;;;4997533;28;20088;-66
2022/08/24 05:16:52;;;;;;;13.38;9.88;;;;;;;;;;4997535;28;20022;-67
2022/08/24 05:19:17;;;;;;;17.48;11.95;;;;;;;;;;5015094;28;20527;-67
2022/08/24 05:21:43;;;;;;;16.00;11.48;;;;;;;;;;5015217;28;20010;-67
2022/08/24 05:24:09;;;;;;;17.60;11.35;;;;;;;;;;4997498;28;20030;-67
2022/08/24 05:26:34;;;;;;;13.77;10.23;;;;;;;;;;4997439;28;20024;-67
2022/08/24 05:29:01;;;;;;;14.93;10.30;;;;;;;;;;4997358;28;20384;-67
2022/08/24 05:31:34;;;;;;;18.85;11.82;;;;;;;;;;4996524;28;20029;-67
2022/08/24 05:34:05;;;;;;;19.25;12.35;;;;;;;;;;4996463;28;20033;-66
2022/08/24 05:36:32;;;;;;;15.85;11.38;;;;;;;;;;4996164;28;20053;-66
2022/08/24 05:38:59;;;;;;;15.75;12.00;;;;;;;;;;4996264;28;20029;-66
2022/08/24 05:41:25;;;;;;;15.98;11.98;;;;;;;;;;4996309;28;20026;-66
2022/08/24 05:43:58;;;;;;;16.48;11.38;;;;;;;;;;4996523;28;20486;-66
2022/08/24 05:46:24;;;;;;;17.17;11.93;;;;;;;;;;5013857;28;20061;-66
2022/08/24 05:48:49;;;;;;;17.88;12.48;;;;;;;;;;4996131;28;20053;-66
2022/08/24 05:51:44;;;;;;;17.75;12.43;;;;;;;;;;5004357;28;20169;-66
2022/08/24 05:54:12;;;;;;;16.58;12.07;;;;;;;;;;4996049;28;20029;-66
2022/08/24 05:56:53;;;;;;;19.35;11.75;;;;;;;;;;4996115;28;20022;-66
2022/08/24 05:59:21;;;;;;;19.30;11.52;;;;;;;;;;4995981;28;20026;-66
2022/08/24 06:01:46;;;;;;;17.60;11.48;;;;;;;;;;4995945;28;20025;-66
2022/08/24 06:04:12;;;;;;;14.90;11.23;;;;;;;;;;4995906;28;20129;-66
2022/08/24 06:06:37;;;;;;;14.52;11.02;;;;;;;;;;5013469;28;20018;-66
2022/08/24 06:09:03;;;;;;;15.30;11.38;;;;;;;;;;4995211;28;20032;-66
2022/08/24 06:11:36;;;;;;;16.90;11.23;;;;;;;;;;4995843;28;20041;-66
2022/08/24 06:14:06;;;;;;;17.98;11.55;;;;;;;;;;4995741;28;20064;-66
2022/08/24 06:16:34;;;;;;;15.30;9.98;;;;;;;;;;4995660;28;20116;-66
2022/08/24 06:19:00;;;;;;;13.98;10.45;;;;;;;;;;4995688;28;20025;-66
2022/08/24 06:21:27;;;;;;;17.23;10.82;;;;;;;;;;4995623;28;20033;-66
2022/08/24 06:23:52;;;;;;;16.30;10.20;;;;;;;;;;4995548;28;20104;-66
2022/08/24 06:29:03;;;;;;;13.85;9.98;;;;;;;;;;5013076;28;20040;-66
2022/08/24 06:31:30;;;;;;;15.65;9.95;;;;;;;;;;4995565;28;20108;-66
2022/08/24 06:33:56;;;;;;;14.02;10.68;;;;;;;;;;4995764;28;20026;-66
2022/08/24 06:36:21;;;;;;;17.40;12.23;;;;;;;;;;4995257;28;20141;-66
2022/08/24 06:38:47;;;;;;;17.73;10.63;;;;;;;;;;5012906;28;20113;-66
2022/08/24 06:41:14;;;;;;;17.60;10.18;;;;;;;;;;4995318;28;20026;-66
2022/08/24 06:43:39;;;;;;;15.95;10.48;;;;;;;;;;4995339;28;20036;-66
2022/08/24 06:46:10;;;;;;;16.63;10.60;;;;;;;;;;4995330;28;20034;-66
2022/08/24 06:48:39;;;;;;;18.15;10.80;;;;;;;;;;4995261;28;20059;-66
2022/08/24 06:51:09;;;;;;;16.90;10.80;;;;;;;;;;4995231;28;20418;-68
2022/08/24 06:53:36;;;;;;;15.70;10.38;;;;;;;;;;4995208;28;20392;-67
2022/08/24 06:56:04;;;;;;;24.15;12.88;;;;;;;;;;4995262;28;20117;-67
2022/08/24 06:58:31;;;;;;;24.92;13.32;;;;;;;;;;4995141;28;20108;-67
2022/08/24 07:01:06;;;;;;;20.85;13.82;;;;;;;;;;4995302;28;20018;-68
2022/08/24 07:03:31;;;;;;;22.48;12.63;;;;;;;;;;4995207;28;20029;-68
2022/08/24 07:06:09;;;;;;;18.67;12.93;;;;;;;;;;4995253;28;20117;-68
2022/08/24 07:08:38;;;;;;;15.88;9.73;;;;;;;;;;4995196;28;20026;-69
2022/08/24 07:11:04;;;;;;;29.05;12.55;;;;;;;;;;4995209;28;20025;-67
2022/08/24 07:13:30;;;;;;;19.00;13.25;;;;;;;;;;5013658;28;20112;-67
2022/08/24 07:15:57;;;;;;;22.80;12.63;;;;;;;;;;4996454;28;20392;-68
2022/08/24 07:18:23;;;;;;;22.48;12.32;;;;;;;;;;4995979;28;20021;-68
2022/08/24 07:20:49;;;;;;;23.58;13.40;;;;;;;;;;5013892;28;20105;-68
2022/08/24 07:23:22;;;;;;;24.60;12.68;;;;;;;;;;4999981;28;20045;-68
2022/08/24 07:25:49;;;;;;;18.67;12.57;;;;;;;;;;5000061;28;20029;-67
2022/08/24 07:28:14;;;;;;;17.60;10.98;;;;;;;;;;5000403;28;20022;-68
2022/08/24 07:30:42;;;;;;;26.35;13.77;;;;;;;;;;5000153;28;20061;-68
2022/08/24 07:33:08;;;;;;;30.48;15.40;;;;;;;;;;5000071;28;20053;-68
2022/08/24 07:35:35;;;;;;;24.67;12.95;;;;;;;;;;4999907;28;20373;-68
2022/08/24 07:38:02;;;;;;;15.35;10.50;;;;;;;;;;4999101;28;20057;-68
2022/08/24 07:40:28;;;;;;;23.48;12.32;;;;;;;;;;4983445;28;20448;-68
2022/08/24 07:42:54;;;;;;;16.73;10.75;;;;;;;;;;5017096;28;20010;-68
2022/08/24 07:45:21;;;;;;;17.27;10.02;;;;;;;;;;4999047;28;20392;-68
2022/08/24 07:47:49;;;;;;;14.95;9.82;;;;;;;;;;4999009;28;20025;-68
2022/08/24 07:50:38;;;;;;;18.10;9.65;;;;;;;;;;4998961;28;20483;-68
2022/08/24 07:53:04;;;;;;;16.48;9.20;;;;;;;;;;4999432;28;20033;-68
2022/08/24 07:55:31;;;;;;;18.33;10.43;;;;;;;;;;4999710;28;20026;-68
2022/08/24 07:57:58;;;;;;;12.50;9.85;;;;;;;;;;4999299;28;20388;-67
2022/08/24 08:00:24;;;;;;;21.13;10.20;;;;;;;;;;4999418;28;20018;-67
2022/08/24 08:02:55;;;;;;;17.45;8.68;;;;;;;;;;4999719;28;20029;-67
2022/08/24 08:05:22;;;;;;;17.73;9.15;;;;;;;;;;4999251;28;20026;-67
2022/08/24 08:07:51;;;;;;;17.55;8.80;;;;;;;;;;4999182;28;20388;-67
2022/08/24 08:10:17;;;;;;;17.75;8.80;;;;;;;;;;4999095;28;20044;-67
2022/08/24 08:12:42;;;;;;;17.63;8.90;;;;;;;;;;4999158;28;20109;-67
2022/08/24 08:15:09;;;;;;;17.45;8.00;;;;;;;;;;4999442;28;20057;-68
2022/08/24 08:17:36;;;;;;;15.18;8.45;;;;;;;;;;4983050;28;20018;-67
2022/08/24 08:20:04;;;;;;;17.75;8.38;;;;;;;;;;4998920;28;20053;-67
2022/08/24 08:25:37;;;;;;;16.65;7.63;;;;;;;;;;5016641;28;20044;-67
2022/08/24 08:28:04;;;;;;;17.55;8.43;;;;;;;;;;4998837;28;20044;-67
2022/08/24 08:30:30;;;;;;;14.57;9.25;;;;;;;;;;4982622;28;20017;-68
2022/08/24 08:32:56;;;;;;;14.82;8.55;;;;;;;;;;4998573;28;20021;-67
2022/08/24 08:35:22;;;;;;;22.48;9.52;;;;;;;;;;4998595;28;20038;-67
2022/08/24 08:37:48;;;;;;;16.90;8.88;;;;;;;;;;4998635;28;20141;-67
2022/08/24 08:40:23;;;;;;;16.48;8.65;;;;;;;;;;4998622;28;20056;-67
2022/08/24 08:42:51;;;;;;;16.17;8.45;;;;;;;;;;4982373;28;20526;-68
2022/08/24 08:45:20;;;;;;;14.55;8.65;;;;;;;;;;4998661;28;20053;-67
2022/08/24 08:48:04;;;;;;;12.20;7.32;;;;;;;;;;4998546;28;20392;-67
2022/08/24 08:50:35;;;;;;;12.65;7.75;;;;;;;;;;4982580;28;20034;-67
2022/08/24 08:53:04;;;;;;;17.23;8.75;;;;;;;;;;4998389;28;20476;-67
2022/08/24 08:55:35;;;;;;;16.95;8.32;;;;;;;;;;4998369;28;20113;-67
2022/08/24 08:58:16;;;;;;;11.23;7.30;;;;;;;;;;4998329;28;20030;-67
2022/08/24 09:00:41;;;;;;;16.55;7.82;;;;;;;;;;4998313;28;20112;-67
2022/08/24 09:03:27;;;;;;;12.60;7.57;;;;;;;;;;4981996;28;20105;-67
2022/08/24 09:06:30;;;;;;;14.02;7.97;;;;;;;;;;5016000;28;20088;-67
2022/08/24 09:08:56;;;;;;;12.13;7.55;;;;;;;;;;4998088;28;20044;-67
2022/08/24 09:11:31;;;;;;;14.95;7.57;;;;;;;;;;4998016;28;20021;-67
2022/08/24 09:14:09;;;;;;;12.88;7.93;;;;;;;;;;4998006;28;20129;-67
2022/08/24 09:17:16;;;;;;;15.82;7.43;;;;;;;;;;4997947;28;20030;-67
2022/08/24 09:20:01;;;;;;;15.35;7.22;;;;;;;;;;4920098;29;20031;-67
2022/08/24 09:22:27;;;;;;;17.15;7.80;;;;;;;;;;4992804;28;20069;-68
2022/08/24 09:24:53;;;;;;;18.75;7.05;;;;;;;;;;4997784;28;20456;-68
2022/08/24 09:27:53;;;;;;;19.98;7.75;;;;;;;;;;4997805;28;20029;-68
2022/08/24 09:30:26;;;;;;;12.32;5.80;;;;;;;;;;5015253;28;20036;-67
2022/08/24 09:33:09;;;;;;;11.05;6.72;;;;;;;;;;4997621;28;20025;-67
2022/08/24 09:35:58;;;;;;;13.77;6.68;;;;;;;;;;5015011;28;20040;-67
2022/08/24 09:38:43;;;;;;;16.25;7.55;;;;;;;;;;5015256;28;20052;-68
2022/08/24 09:41:11;;;;;;;19.08;7.97;;;;;;;;;;5015142;28;20060;-67
2022/08/24 09:43:37;;;;;;;15.93;8.20;;;;;;;;;;4996775;28;20022;-67
2022/08/24 09:46:12;;;;;;;17.58;7.30;;;;;;;;;;4997096;28;20032;-67
2022/08/24 09:48:55;;;;;;;19.08;8.30;;;;;;;;;;5014925;28;20040;-68
2022/08/24 09:51:50;;;;;;;23.05;8.77;;;;;;;;;;4997287;28;20026;-67
2022/08/24 09:54:39;;;;;;;20.85;8.18;;;;;;;;;;5014801;28;20072;-67
2022/08/24 09:57:19;;;;;;;19.38;8.25;;;;;;;;;;5014748;28;20571;-67
2022/08/24 09:59:46;;;;;;;;;;;;;;;;;;5015224;28;20069;-67
2022/08/24 10:02:11;;;;;;;13.95;5.90;;;;;;;;;;5014891;28;19905;-68
2022/08/24 10:04:43;;;;;;;28.08;7.97;;;;;;;;;;5014675;28;20029;-68
2022/08/24 10:07:17;;;;;;;19.45;8.15;;;;;;;;;;5014742;28;20487;-68
2022/08/24 10:09:49;;;;;;;18.73;6.95;;;;;;;;;;5014594;28;20060;-68
2022/08/24 10:12:26;;;;;;;18.33;7.03;;;;;;;;;;5014565;28;20056;-68
2022/08/24 10:15:06;;;;;;;20.02;7.30;;;;;;;;;;5014533;28;20383;-68
2022/08/24 10:17:31;;;;;;;23.20;7.60;;;;;;;;;;4996923;28;20037;-68
2022/08/24 10:20:00;;;;;;;22.88;6.47;;;;;;;;;;5014447;28;20014;-68
2022/08/24 10:22:58;;;;;;;15.48;5.90;;;;;;;;;;5014363;28;20034;-68
2022/08/24 10:25:42;;;;;;;18.05;6.85;;;;;;;;;;4970898;28;20045;-68
2022/08/24 10:28:28;;;;;;;20.13;7.00;;;;;;;;;;5014278;28;20036;-68
2022/08/24 10:30:58;;;;;;;23.10;6.57;;;;;;;;;;5014255;28;20029;-67
2022/08/24 10:33:27;;;;;;;25.13;6.85;;;;;;;;;;5014167;28;20495;-68
2022/08/24 10:36:04;;;;;;;17.42;6.13;;;;;;;;;;5013930;28;20412;-68
2022/08/24 10:41:56;;;;;;;26.13;5.88;;;;;;;;;;5013568;28;20480;-67
2022/08/24 10:44:24;;;;;;;23.20;5.93;;;;;;;;;;5014182;28;20384;-68
2022/08/24 10:46:51;;;;;;;24.40;4.82;;;;;;;;;;5014136;28;20014;-68
2022/08/24 10:49:23;;;;;;;18.05;5.25;;;;;;;;;;5014106;28;20033;-67
2022/08/24 10:52:07;;;;;;;15.45;5.93;;;;;;;;;;5014122;28;20034;-68
2022/08/24 10:54:34;;;;;;;19.38;5.50;;;;;;;;;;5014046;28;20121;-68
2022/08/24 10:57:07;;;;;;;20.75;5.50;;;;;;;;;;4996288;28;20022;-68
2022/08/24 10:59:39;;;;;;;27.42;5.78;;;;;;;;;;5013898;28;20034;-67
2022/08/24 11:02:05;;;;;;;22.85;6.07;;;;;;;;;;5013922;28;20113;-68
2022/08/24 11:04:32;;;;;;;29.58;5.60;;;;;;;;;;5013948;28;20455;-67
2022/08/24 11:07:06;;;;;;;23.55;5.38;;;;;;;;;;5013914;28;20018;-67
2022/08/24 11:09:58;;;;;;;30.50;5.32;;;;;;;;;;5013869;28;20488;-67
2022/08/24 11:12:24;;;;;;;20.38;5.97;;;;;;;;;;5010285;28;20038;-67
2022/08/24 11:14:50;;;;;;;24.10;5.38;;;;;;;;;;5013683;28;20040;-67
2022/08/24 11:17:17;;;;;;;24.00;5.60;;;;;;;;;;5013680;28;20037;-68
2022/08/24 11:19:42;;;;;;;23.83;5.05;;;;;;;;;;5013647;28;20083;-68
2022/08/24 11:22:40;;;;;;;24.23;5.60;;;;;;;;;;5013968;28;20524;-68
2022/08/24 11:25:24;;;;;;;27.67;5.30;;;;;;;;;;4970473;28;20096;-67
2022/08/24 11:27:50;;;;;;;24.13;6.00;;;;;;;;;;5013743;28;20519;-67
2022/08/24 11:30:16;;;;;;;20.05;4.93;;;;;;;;;;5013612;28;20064;-67
2022/08/24 11:32:41;;;;;;;20.13;5.40;;;;;;;;;;5013554;28;20420;-68
2022/08/24 11:35:18;;;;;;;21.10;6.30;;;;;;;;;;5013322;28;20030;-68
2022/08/24 11:37:45;;;;;;;20.98;5.47;;;;;;;;;;5013440;28;20357;-67
2022/08/24 11:40:11;;;;;;;20.98;5.88;;;;;;;;;;5013637;28;20041;-68
2022/08/24 11:42:48;;;;;;;22.17;5.80;;;;;;;;;;5013605;28;20068;-67
2022/08/24 11:45:18;;;;;;;25.35;6.03;;;;;;;;;;4995821;28;20033;-68
2022/08/24 11:47:51;;;;;;;21.80;5.45;;;;;;;;;;4995842;28;20022;-68
2022/08/24 11:50:21;;;;;;;24.33;6.20;;;;;;;;;;5013508;28;20042;-68
2022/08/24 11:52:46;;;;;;;19.75;5.88;;;;;;;;;;5013463;28;20480;-68
2022/08/24 11:55:24;;;;;;;23.88;5.90;;;;;;;;;;5013390;28;20064;-68
2022/08/24 11:57:56;;;;;;;22.48;5.53;;;;;;;;;;5013293;28;20468;-68
2022/08/24 12:00:23;;;;;;;18.85;5.40;;;;;;;;;;5013665;28;20136;-68
2022/08/24 12:02:59;;;;;;;20.23;6.70;;;;;;;;;;5013365;28;20029;-68
2022/08/24 12:05:24;;;;;;;30.73;6.85;;;;;;;;;;5013299;28;20041;-68
2022/08/24 12:07:53;;;;;;;28.45;7.00;;;;;;;;;;5014668;28;20025;-68
2022/08/24 12:10:19;;;;;;;29.90;6.40;;;;;;;;;;5016685;28;20164;-68
2022/08/24 12:13:01;;;;;;;16.85;5.45;;;;;;;;;;4999831;28;20427;-68
2022/08/24 12:15:33;;;;;;;24.38;6.57;;;;;;;;;;5016778;28;20496;-68
2022/08/24 12:18:03;;;;;;;23.52;6.47;;;;;;;;;;5017098;28;20034;-67
2022/08/24 12:20:30;;;;;;;19.88;5.10;;;;;;;;;;5016231;28;20037;-67
2022/08/24 12:22:57;;;;;;;18.60;5.22;;;;;;;;;;5015923;28;20018;-68
2022/08/24 12:28:09;;;;;;;20.00;5.30;;;;;;;;;;5016034;28;20041;-68
2022/08/24 12:30:35;;;;;;;20.38;5.10;;;;;;;;;;5015604;28;20030;-69
2022/08/24 12:33:09;;;;;;;23.13;4.78;;;;;;;;;;5015562;28;20030;-67
2022/08/24 12:35:41;;;;;;;23.23;6.10;;;;;;;;;;5015141;28;20038;-68
2022/08/24 12:38:09;;;;;;;21.95;5.78;;;;;;;;;;4997635;28;20045;-68
2022/08/24 12:40:35;;;;;;;33.10;6.18;;;;;;;;;;5015139;28;20029;-68
2022/08/24 12:43:07;;;;;;;23.95;5.85;;;;;;;;;;5015093;28;20560;-68
2022/08/24 12:45:33;;;;;;;24.30;5.35;;;;;;;;;;5015125;28;20033;-68
2022/08/24 12:48:10;;;;;;;24.65;5.38;;;;;;;;;;5015023;28;20494;-68
2022/08/24 12:50:55;;;;;;;26.98;5.95;;;;;;;;;;5014931;28;20033;-68
2022/08/24 12:53:26;;;;;;;19.77;5.00;;;;;;;;;;5014941;28;20431;-68
2022/08/24 12:55:55;;;;;;;23.80;5.25;;;;;;;;;;5014839;28;20498;-68
2022/08/24 12:58:29;;;;;;;21.55;5.65;;;;;;;;;;5014796;28;20388;-68
2022/08/24 13:00:55;;;;;;;26.30;5.40;;;;;;;;;;5014764;28;20041;-68
2022/08/24 13:03:31;;;;;;;15.68;4.90;;;;;;;;;;5014742;28;20026;-68
2022/08/24 13:05:58;;;;;;;22.92;5.32;;;;;;;;;;5014625;28;20018;-68
2022/08/24 13:08:41;;;;;;;18.75;5.22;;;;;;;;;;5014560;28;20014;-68
2022/08/24 13:11:11;;;;;;;29.50;6.55;;;;;;;;;;5014663;28;20100;-68
2022/08/24 13:13:43;;;;;;;21.15;6.00;;;;;;;;;;5014518;28;20140;-67
2022/08/24 13:16:08;;;;;;;18.60;5.60;;;;;;;;;;4997034;28;20034;-66
2022/08/24 13:18:51;;;;;;;16.80;5.50;;;;;;;;;;5014167;28;20473;-67
2022/08/24 13:21:34;;;;;;;18.30;5.45;;;;;;;;;;5014352;28;20084;-67
2022/08/24 13:24:18;;;;;;;23.50;5.28;;;;;;;;;;5014337;28;20030;-67
2022/08/24 13:26:43;;;;;;;20.90;5.40;;;;;;;;;;5014243;28;20076;-67
2022/08/24 13:29:09;;;;;;;23.67;5.22;;;;;;;;;;5014163;28;20018;-66
2022/08/24 13:31:41;;;;;;;21.25;5.18;;;;;;;;;;5014245;28;20519;-67
2022/08/24 13:34:07;;;;;;;27.45;5.90;;;;;;;;;;4996659;28;20053;-67
2022/08/24 13:36:45;;;;;;;25.65;5.05;;;;;;;;;;4996484;28;20057;-67
2022/08/24 13:39:11;;;;;;;17.95;4.43;;;;;;;;;;5013923;28;20034;-67
2022/08/24 13:41:55;;;;;;;23.08;5.25;;;;;;;;;;5014003;28;20515;-67
2022/08/24 13:44:29;;;;;;;19.10;5.28;;;;;;;;;;5013928;28;20385;-67
2022/08/24 13:47:11;;;;;;;16.85;4.60;;;;;;;;;;5013906;28;20108;-67
2022/08/24 13:50:00;;;;;;;17.73;4.75;;;;;;;;;;5013767;28;20112;-67
2022/08/24 13:52:48;;;;;;;20.87;5.37;;;;;;;;;;4996191;28;20030;-67
2022/08/24 13:55:13;;;;;;;22.67;6.13;;;;;;;;;;5013735;28;20413;-66
2022/08/24 13:58:11;;;;;;;16.95;5.38;;;;;;;;;;4996086;28;20026;-67
2022/08/24 14:00:57;;;;;;;23.25;5.85;;;;;;;;;;4970229;28;20064;-66
2022/08/24 14:03:40;;;;;;;16.95;4.85;;;;;;;;;;5013210;28;20038;-66
2022/08/24 14:06:24;;;;;;;26.65;5.43;;;;;;;;;;4995899;28;20022;-69
2022/08/24 14:08:57;;;;;;;27.58;6.13;;;;;;;;;;4996830;28;20042;-68
2022/08/24 14:11:35;;;;;;;23.85;5.43;;;;;;;;;;5014266;28;20034;-68
2022/08/24 14:14:11;;;;;;;22.92;5.65;;;;;;;;;;5014689;28;20053;-69
2022/08/24 14:20:01;;;;;;;30.38;5.65;;;;;;;;;;5014931;28;20112;-67
2022/08/24 14:22:31;;;;;;;18.85;5.40;;;;;;;;;;5014936;28;20515;-67
2022/08/24 14:25:14;;;;;;;20.75;5.47;;;;;;;;;;4996976;28;20033;-67
2022/08/24 14:27:39;;;;;;;27.38;5.70;;;;;;;;;;5014743;28;20080;-65
2022/08/24 14:30:28;;;;;;;26.70;5.43;;;;;;;;;;5014361;28;20030;-65
2022/08/24 14:32:56;;;;;;;19.98;5.63;;;;;;;;;;5003683;28;20476;-65
2022/08/24 14:35:42;;;;;;;18.95;4.78;;;;;;;;;;5013886;28;20041;-65
2022/08/24 14:38:23;;;;;;;17.30;5.15;;;;;;;;;;5013733;28;20097;-66
2022/08/24 14:40:56;;;;;;;23.33;6.18;;;;;;;;;;5014613;28;20026;-65
2022/08/24 14:43:24;;;;;;;20.63;5.07;;;;;;;;;;5013960;28;20479;-67
2022/08/24 14:45:57;;;;;;;22.42;5.65;;;;;;;;;;5014324;28;20021;-65
2022/08/24 14:48:23;;;;;;;16.50;5.40;;;;;;;;;;4997046;28;20440;-65
2022/08/24 14:50:48;;;;;;;25.38;5.80;;;;;;;;;;5013471;28;20042;-66
2022/08/24 14:53:17;;;;;;;24.80;5.63;;;;;;;;;;4995947;28;20040;-65
2022/08/24 14:56:01;;;;;;;22.08;6.97;;;;;;;;;;4996670;28;20033;-65
2022/08/24 14:58:42;;;;;;;29.42;5.45;;;;;;;;;;5014449;28;20030;-66